Time;durP1;ratioP1;P1;durP2;ratioP2;P2;SDS_P1;SDS_P2;PMS_P1;PMS_P2;Temp;Humidity;BMP_temperature;BMP_pressure;BME280_temperature;BME280_humidity;BME280_pressure;Samples;Min_cycle;Max_cycle;Signal;HPM_P1;HPM_P2
2022/04/13 00:00:07;;;;;;;10.23;4.57;;;;;;;;;;4940099;29;20442;-49
2022/04/13 00:02:33;;;;;;;7.35;3.88;;;;;;;;;;4939422;29;20024;-51
2022/04/13 00:04:59;;;;;;;6.18;3.67;;;;;;;;;;4939918;29;20036;-54
2022/04/13 00:07:26;;;;;;;6.05;3.75;;;;;;;;;;4939472;29;20022;-53
2022/04/13 00:09:52;;;;;;;12.07;4.65;;;;;;;;;;4939958;29;20381;-51
2022/04/13 00:12:18;;;;;;;13.82;5.05;;;;;;;;;;4940209;29;20023;-51
2022/04/13 00:14:44;;;;;;;14.73;6.05;;;;;;;;;;4939578;29;20032;-49
2022/04/13 00:17:10;;;;;;;39.50;14.05;;;;;;;;;;4939807;29;20019;-49
2022/04/13 00:19:36;;;;;;;44.20;15.75;;;;;;;;;;4939762;29;20024;-49
2022/04/13 00:22:02;;;;;;;46.75;17.17;;;;;;;;;;4939464;29;20406;-50
2022/04/13 00:24:28;;;;;;;53.45;17.33;;;;;;;;;;4939613;29;20039;-50
2022/04/13 00:26:57;;;;;;;33.42;14.00;;;;;;;;;;4939309;29;20028;-49
2022/04/13 00:29:23;;;;;;;53.55;19.92;;;;;;;;;;4938944;29;20028;-48
2022/04/13 00:31:51;;;;;;;50.28;19.45;;;;;;;;;;4939266;29;20026;-48
2022/04/13 00:34:17;;;;;;;50.38;20.50;;;;;;;;;;4939434;29;20031;-50
2022/04/13 00:36:43;;;;;;;45.22;20.98;;;;;;;;;;4939108;29;20032;-48
2022/04/13 00:39:10;;;;;;;47.47;22.60;;;;;;;;;;4939679;29;20024;-52
2022/04/13 00:41:36;;;;;;;39.70;18.10;;;;;;;;;;4939392;29;20374;-52
2022/04/13 00:44:03;;;;;;;38.58;17.77;;;;;;;;;;4939039;29;20032;-53
2022/04/13 00:46:30;;;;;;;26.98;15.00;;;;;;;;;;4939422;29;20035;-54
2022/04/13 00:48:57;;;;;;;23.10;11.70;;;;;;;;;;4938372;29;20020;-49
2022/04/13 00:51:23;;;;;;;21.63;10.50;;;;;;;;;;4938668;29;20019;-53
2022/04/13 00:53:51;;;;;;;21.38;10.55;;;;;;;;;;4939126;29;20442;-51
2022/04/13 00:56:23;;;;;;;20.77;10.38;;;;;;;;;;4938527;29;20465;-51
2022/04/13 00:58:50;;;;;;;23.20;10.52;;;;;;;;;;4939018;29;20027;-49
2022/04/13 01:01:16;;;;;;;23.55;10.93;;;;;;;;;;4938716;29;20032;-49
2022/04/13 01:03:43;;;;;;;18.17;8.02;;;;;;;;;;4938668;29;20034;-49
2022/04/13 01:06:10;;;;;;;18.00;7.43;;;;;;;;;;4938926;29;20086;-51
2022/04/13 01:08:38;;;;;;;19.08;6.35;;;;;;;;;;4938639;29;20421;-52
2022/04/13 01:11:04;;;;;;;10.80;4.70;;;;;;;;;;4938298;29;20024;-50
2022/04/13 01:13:30;;;;;;;13.63;5.47;;;;;;;;;;4938738;29;20111;-54
2022/04/13 01:15:56;;;;;;;16.00;5.10;;;;;;;;;;4938781;29;20055;-53
2022/04/13 01:18:22;;;;;;;15.20;5.50;;;;;;;;;;4938419;29;20467;-50
2022/04/13 01:20:51;;;;;;;13.98;5.95;;;;;;;;;;4938722;29;20055;-51
2022/04/13 01:23:17;;;;;;;14.07;6.28;;;;;;;;;;4938575;29;20031;-49
2022/04/13 01:25:50;;;;;;;15.05;6.63;;;;;;;;;;4938248;29;20118;-49
2022/04/13 01:28:17;;;;;;;12.85;6.15;;;;;;;;;;4938834;29;20031;-51
2022/04/13 01:30:43;;;;;;;12.05;6.10;;;;;;;;;;4938527;29;20024;-51
2022/04/13 01:33:09;;;;;;;14.10;7.07;;;;;;;;;;4938159;29;20111;-53
2022/04/13 01:35:35;;;;;;;16.10;8.75;;;;;;;;;;4938446;29;20034;-53
2022/04/13 01:38:02;;;;;;;16.35;9.30;;;;;;;;;;4938384;29;20020;-54
2022/04/13 01:40:29;;;;;;;20.50;10.25;;;;;;;;;;4937664;29;20032;-50
2022/04/13 01:42:55;;;;;;;22.58;11.23;;;;;;;;;;4938541;29;20024;-51
2022/04/13 01:45:21;;;;;;;28.08;15.60;;;;;;;;;;4937593;29;20046;-51
2022/04/13 01:47:50;;;;;;;30.20;16.33;;;;;;;;;;4937878;29;20067;-50
2022/04/13 01:50:17;;;;;;;30.25;17.65;;;;;;;;;;4937842;29;20024;-49
2022/04/13 01:52:44;;;;;;;35.90;18.58;;;;;;;;;;4937864;29;20096;-51
2022/04/13 01:55:10;;;;;;;30.63;17.00;;;;;;;;;;4938008;29;20035;-47
2022/04/13 01:57:37;;;;;;;30.58;15.85;;;;;;;;;;4937724;29;20027;-49
2022/04/13 02:00:05;;;;;;;24.65;13.38;;;;;;;;;;4937584;29;20027;-50
2022/04/13 02:02:31;;;;;;;25.85;13.73;;;;;;;;;;4937613;29;20028;-50
2022/04/13 02:04:57;;;;;;;29.52;15.40;;;;;;;;;;4937911;29;20039;-49
2022/04/13 02:07:24;;;;;;;27.13;14.55;;;;;;;;;;4937174;29;20028;-48
2022/04/13 02:09:50;;;;;;;29.90;16.27;;;;;;;;;;4938253;29;20102;-50
2022/04/13 02:12:16;;;;;;;29.63;16.08;;;;;;;;;;4937683;29;20473;-53
2022/04/13 02:14:42;;;;;;;28.90;16.77;;;;;;;;;;4937261;29;20032;-53
2022/04/13 02:17:08;;;;;;;38.13;21.00;;;;;;;;;;4936372;29;20461;-51
2022/04/13 02:19:34;;;;;;;43.42;21.17;;;;;;;;;;4937530;29;20028;-52
2022/04/13 02:22:00;;;;;;;43.60;21.55;;;;;;;;;;4937207;29;20252;-54
2022/04/13 02:24:26;;;;;;;40.00;21.08;;;;;;;;;;4937362;29;20059;-52
2022/04/13 02:26:53;;;;;;;38.15;21.05;;;;;;;;;;4937415;29;20024;-49
2022/04/13 02:29:19;;;;;;;41.38;23.70;;;;;;;;;;4937013;29;20027;-49
2022/04/13 02:31:45;;;;;;;42.40;22.15;;;;;;;;;;4936991;29;20482;-50
2022/04/13 02:34:13;;;;;;;49.13;22.77;;;;;;;;;;4936972;29;20062;-51
2022/04/13 02:36:39;;;;;;;42.92;22.55;;;;;;;;;;4937330;29;20020;-51
2022/04/13 02:39:05;;;;;;;45.08;25.77;;;;;;;;;;4936816;29;20020;-49
2022/04/13 02:41:32;;;;;;;45.08;24.88;;;;;;;;;;4936917;29;20031;-51
2022/04/13 02:43:58;;;;;;;42.70;22.77;;;;;;;;;;4937039;29;20385;-52
2022/04/13 02:46:24;;;;;;;32.22;17.95;;;;;;;;;;4936962;29;20036;-52
2022/04/13 02:48:50;;;;;;;35.10;19.20;;;;;;;;;;4936701;29;20024;-54
2022/04/13 02:51:16;;;;;;;38.50;20.45;;;;;;;;;;4936810;29;20045;-55
2022/04/13 02:53:42;;;;;;;32.38;18.48;;;;;;;;;;4937283;29;20115;-55
2022/04/13 02:56:09;;;;;;;34.00;18.23;;;;;;;;;;4936871;29;20079;-53
2022/04/13 02:58:35;;;;;;;35.35;18.92;;;;;;;;;;4936650;29;20469;-53
2022/04/13 03:01:03;;;;;;;38.70;22.13;;;;;;;;;;4936864;29;20078;-52
2022/04/13 03:03:29;;;;;;;54.03;30.13;;;;;;;;;;4936543;29;20042;-54
2022/04/13 03:05:55;;;;;;;56.35;30.85;;;;;;;;;;4936731;29;20036;-53
2022/04/13 03:08:21;;;;;;;51.55;27.10;;;;;;;;;;4936743;29;20024;-51
2022/04/13 03:10:48;;;;;;;41.63;21.42;;;;;;;;;;4936655;29;20036;-51
2022/04/13 03:13:14;;;;;;;31.52;17.08;;;;;;;;;;4936263;29;20059;-49
2022/04/13 03:15:40;;;;;;;32.72;16.73;;;;;;;;;;4936352;29;20042;-55
2022/04/13 03:18:06;;;;;;;46.03;25.83;;;;;;;;;;4936314;29;20062;-48
2022/04/13 03:20:34;;;;;;;37.13;18.88;;;;;;;;;;4936509;29;20031;-51
2022/04/13 03:23:00;;;;;;;40.97;22.05;;;;;;;;;;4936237;29;20027;-49
2022/04/13 03:25:26;;;;;;;37.15;20.27;;;;;;;;;;4936129;29;20042;-51
2022/04/13 03:27:52;;;;;;;41.88;21.38;;;;;;;;;;4936445;29;20346;-51
2022/04/13 03:30:18;;;;;;;38.38;21.40;;;;;;;;;;4936169;29;20031;-51
2022/04/13 03:32:45;;;;;;;39.72;22.08;;;;;;;;;;4936726;29;20361;-51
2022/04/13 03:35:12;;;;;;;41.65;21.50;;;;;;;;;;4936426;29;20100;-48
2022/04/13 03:37:38;;;;;;;48.33;23.73;;;;;;;;;;4935779;29;20115;-51
2022/04/13 03:40:05;;;;;;;44.50;22.85;;;;;;;;;;4936263;29;20023;-53
2022/04/13 03:42:35;;;;;;;41.67;22.33;;;;;;;;;;4936386;29;20085;-54
2022/04/13 03:45:05;;;;;;;45.50;23.20;;;;;;;;;;4935872;29;20043;-54
2022/04/13 03:47:31;;;;;;;62.78;35.33;;;;;;;;;;4936284;29;20359;-54
2022/04/13 03:49:58;;;;;;;78.88;41.92;;;;;;;;;;4936274;29;20024;-53
2022/04/13 03:52:24;;;;;;;91.80;44.72;;;;;;;;;;4935518;29;20056;-51
2022/04/13 03:54:50;;;;;;;74.15;40.25;;;;;;;;;;4936419;29;20110;-50
2022/04/13 03:57:17;;;;;;;64.68;33.58;;;;;;;;;;4936497;29;20020;-50
2022/04/13 03:59:43;;;;;;;48.35;25.17;;;;;;;;;;4936162;29;20030;-48
2022/04/13 04:02:09;;;;;;;53.47;28.00;;;;;;;;;;4936176;29;20023;-50
2022/04/13 04:04:35;;;;;;;56.17;28.35;;;;;;;;;;4936090;29;20020;-48
2022/04/13 04:07:01;;;;;;;59.88;29.00;;;;;;;;;;4936114;29;20079;-48
2022/04/13 04:09:27;;;;;;;52.45;28.08;;;;;;;;;;4936098;29;20426;-49
2022/04/13 04:11:53;;;;;;;52.83;28.02;;;;;;;;;;4935814;29;20035;-49
2022/04/13 04:14:20;;;;;;;38.58;20.63;;;;;;;;;;4935818;29;20462;-51
2022/04/13 04:16:46;;;;;;;38.85;18.10;;;;;;;;;;4936287;29;20062;-52
2022/04/13 04:19:12;;;;;;;49.05;17.23;;;;;;;;;;4935757;29;20027;-51
2022/04/13 04:21:38;;;;;;;40.05;16.52;;;;;;;;;;4935661;29;20030;-54
2022/04/13 04:24:04;;;;;;;36.67;18.58;;;;;;;;;;4937239;29;20035;-49
2022/04/13 04:26:30;;;;;;;38.33;19.83;;;;;;;;;;4938796;29;20055;-48
2022/04/13 04:28:56;;;;;;;50.33;20.52;;;;;;;;;;4938129;29;20500;-52
2022/04/13 04:32:08;;;;;;;42.70;21.05;;;;;;;;;;4939131;29;20024;-53
2022/04/13 04:34:09;;;;;;;39.70;19.67;;;;;;;;;;4934087;29;20063;-53
2022/04/13 04:36:35;;;;;;;66.60;28.38;;;;;;;;;;4939366;29;20024;-53
2022/04/13 04:39:01;;;;;;;70.03;29.23;;;;;;;;;;4939410;29;20038;-55
2022/04/13 04:41:27;;;;;;;61.55;27.27;;;;;;;;;;4938987;29;20039;-51
2022/04/13 04:43:54;;;;;;;60.58;25.48;;;;;;;;;;4939439;29;20054;-52
2022/04/13 04:46:20;;;;;;;54.70;26.50;;;;;;;;;;4939040;29;20035;-47
2022/04/13 04:48:46;;;;;;;47.22;27.45;;;;;;;;;;4938545;29;20047;-52
2022/04/13 04:51:13;;;;;;;42.67;21.80;;;;;;;;;;4938892;29;20024;-49
2022/04/13 04:53:39;;;;;;;53.47;24.10;;;;;;;;;;4939099;29;20107;-51
2022/04/13 04:56:05;;;;;;;49.55;21.98;;;;;;;;;;4938398;29;20497;-50
2022/04/13 04:58:31;;;;;;;45.55;22.80;;;;;;;;;;4938930;29;20032;-54
2022/04/13 05:00:57;;;;;;;32.42;17.00;;;;;;;;;;4938633;29;20119;-52
2022/04/13 05:03:23;;;;;;;31.73;13.95;;;;;;;;;;4938071;29;20056;-54
2022/04/13 05:05:50;;;;;;;34.47;14.45;;;;;;;;;;4937676;29;20031;-54
2022/04/13 05:08:16;;;;;;;33.67;13.63;;;;;;;;;;4936991;29;20031;-52
2022/04/13 05:10:51;;;;;;;32.63;13.73;;;;;;;;;;4939036;29;20028;-53
2022/04/13 05:13:20;;;;;;;29.00;13.70;;;;;;;;;;4938823;29;20055;-55
2022/04/13 05:15:46;;;;;;;29.95;15.15;;;;;;;;;;4938189;29;20024;-54
2022/04/13 05:18:13;;;;;;;29.30;14.50;;;;;;;;;;4938708;29;20023;-54
2022/04/13 05:20:39;;;;;;;23.60;13.15;;;;;;;;;;4938270;29;20098;-53
2022/04/13 05:23:05;;;;;;;28.85;14.00;;;;;;;;;;4938346;29;20042;-51
2022/04/13 05:25:31;;;;;;;26.75;14.70;;;;;;;;;;4938668;29;20031;-51
2022/04/13 05:27:59;;;;;;;32.08;14.95;;;;;;;;;;4938483;29;20024;-51
2022/04/13 05:30:25;;;;;;;22.20;12.93;;;;;;;;;;4938100;29;20342;-53
2022/04/13 05:32:57;;;;;;;28.30;13.68;;;;;;;;;;4938397;29;20035;-53
2022/04/13 05:35:24;;;;;;;28.67;16.20;;;;;;;;;;4938189;29;20068;-52
2022/04/13 05:37:50;;;;;;;27.83;15.48;;;;;;;;;;4937729;29;20509;-53
2022/04/13 05:40:17;;;;;;;29.13;15.45;;;;;;;;;;4938295;29;20024;-54
2022/04/13 05:42:43;;;;;;;28.40;15.60;;;;;;;;;;4938495;29;20107;-55
2022/04/13 05:45:09;;;;;;;28.45;15.15;;;;;;;;;;4937308;29;20039;-52
2022/04/13 05:47:35;;;;;;;25.15;15.70;;;;;;;;;;4937880;29;20023;-52
2022/04/13 05:50:02;;;;;;;24.85;15.20;;;;;;;;;;4937717;29;20032;-49
2022/04/13 05:52:28;;;;;;;22.42;11.90;;;;;;;;;;4937539;29;20114;-52
2022/04/13 05:54:54;;;;;;;22.38;11.98;;;;;;;;;;4936513;29;20450;-55
2022/04/13 05:57:21;;;;;;;24.85;12.30;;;;;;;;;;4937835;29;20094;-51
2022/04/13 05:59:47;;;;;;;22.42;11.73;;;;;;;;;;4937122;29;20027;-54
2022/04/13 06:02:13;;;;;;;21.95;9.82;;;;;;;;;;4936766;29;20027;-52
2022/04/13 06:04:39;;;;;;;19.50;8.48;;;;;;;;;;4936838;29;20501;-51
2022/04/13 06:07:05;;;;;;;13.48;7.50;;;;;;;;;;4937165;29;20028;-53
2022/04/13 06:09:31;;;;;;;14.43;7.30;;;;;;;;;;4937183;29;20020;-53
2022/04/13 06:11:59;;;;;;;17.27;7.85;;;;;;;;;;4937184;29;20023;-55
2022/04/13 06:14:25;;;;;;;17.70;8.13;;;;;;;;;;4937039;29;20056;-53
2022/04/13 06:16:51;;;;;;;17.30;8.05;;;;;;;;;;4937359;29;20028;-53
2022/04/13 06:19:18;;;;;;;15.50;7.93;;;;;;;;;;4936995;29;20027;-53
2022/04/13 06:21:44;;;;;;;17.00;9.02;;;;;;;;;;4937550;29;20027;-54
2022/04/13 06:24:10;;;;;;;17.05;9.63;;;;;;;;;;4937236;29;20154;-54
2022/04/13 06:26:36;;;;;;;20.35;9.60;;;;;;;;;;4936764;29;20403;-52
2022/04/13 06:29:02;;;;;;;27.10;14.48;;;;;;;;;;4937635;29;20024;-54
2022/04/13 06:31:28;;;;;;;66.03;28.25;;;;;;;;;;4936174;29;20046;-48
2022/04/13 06:33:54;;;;;;;25.95;11.75;;;;;;;;;;4937021;29;20473;-54
2022/04/13 06:36:21;;;;;;;22.83;12.55;;;;;;;;;;4937023;29;20028;-51
2022/04/13 06:38:47;;;;;;;23.33;13.88;;;;;;;;;;4937006;29;20038;-53
2022/04/13 06:41:13;;;;;;;18.23;10.65;;;;;;;;;;4936956;29;20027;-53
2022/04/13 06:43:40;;;;;;;22.20;11.52;;;;;;;;;;4937170;29;20052;-54
2022/04/13 06:46:07;;;;;;;21.95;9.98;;;;;;;;;;4936110;29;20489;-51
2022/04/13 06:48:33;;;;;;;22.15;11.73;;;;;;;;;;4937276;29;20090;-53
2022/04/13 06:51:00;;;;;;;17.33;10.70;;;;;;;;;;4936223;29;20473;-55
2022/04/13 06:53:26;;;;;;;19.38;11.05;;;;;;;;;;4937240;29;20044;-50
2022/04/13 06:55:53;;;;;;;23.13;12.65;;;;;;;;;;4936751;29;20024;-51
2022/04/13 06:58:19;;;;;;;18.05;11.20;;;;;;;;;;4936091;29;20417;-52
2022/04/13 07:00:47;;;;;;;21.23;10.95;;;;;;;;;;4935560;29;20050;-52
2022/04/13 07:03:13;;;;;;;22.98;11.00;;;;;;;;;;4935667;29;20071;-52
2022/04/13 07:05:39;;;;;;;17.70;9.82;;;;;;;;;;4936115;29;20043;-51
2022/04/13 07:08:06;;;;;;;15.68;9.82;;;;;;;;;;4936519;29;20027;-52
2022/04/13 07:10:32;;;;;;;23.20;11.15;;;;;;;;;;4936355;29;20051;-51
2022/04/13 07:12:59;;;;;;;16.10;9.23;;;;;;;;;;4936871;29;20032;-52
2022/04/13 07:15:25;;;;;;;12.25;8.57;;;;;;;;;;4936533;29;20115;-54
2022/04/13 07:17:51;;;;;;;14.07;8.98;;;;;;;;;;4936908;29;20032;-48
2022/04/13 07:20:17;;;;;;;16.25;9.20;;;;;;;;;;4933999;29;20433;-48
2022/04/13 07:22:45;;;;;;;14.98;9.70;;;;;;;;;;4934454;29;20520;-48
2022/04/13 07:25:11;;;;;;;14.90;8.23;;;;;;;;;;4936131;29;20095;-52
2022/04/13 07:27:37;;;;;;;19.33;9.07;;;;;;;;;;4935928;29;20107;-49
2022/04/13 07:30:04;;;;;;;17.00;9.13;;;;;;;;;;4934421;29;20023;-49
2022/04/13 07:32:30;;;;;;;15.35;8.18;;;;;;;;;;4934749;29;20028;-51
2022/04/13 07:34:59;;;;;;;22.30;9.13;;;;;;;;;;4936247;29;20031;-52
2022/04/13 07:37:25;;;;;;;12.05;8.80;;;;;;;;;;4935826;29;20028;-50
2022/04/13 07:39:52;;;;;;;15.35;8.77;;;;;;;;;;4936429;29;20062;-53
2022/04/13 07:42:26;;;;;;;13.18;8.88;;;;;;;;;;4936056;29;20059;-53
2022/04/13 07:44:52;;;;;;;14.60;7.97;;;;;;;;;;4936478;29;20046;-52
2022/04/13 07:47:21;;;;;;;14.50;9.15;;;;;;;;;;4936318;29;20024;-53
2022/04/13 07:49:48;;;;;;;16.40;9.00;;;;;;;;;;4936366;29;20130;-54
2022/04/13 07:52:14;;;;;;;14.63;9.35;;;;;;;;;;4935889;29;20055;-53
2022/04/13 07:54:41;;;;;;;11.90;8.18;;;;;;;;;;4936303;29;20110;-54
2022/04/13 07:57:07;;;;;;;15.27;8.85;;;;;;;;;;4936256;29;20461;-49
2022/04/13 07:59:33;;;;;;;17.73;8.13;;;;;;;;;;4939510;29;20553;-50
2022/04/13 08:01:59;;;;;;;15.50;8.50;;;;;;;;;;4939999;29;20078;-54
2022/04/13 08:04:26;;;;;;;16.92;7.43;;;;;;;;;;4939699;29;20028;-54
2022/04/13 08:06:52;;;;;;;12.63;7.85;;;;;;;;;;4939870;29;20473;-49
2022/04/13 08:09:18;;;;;;;12.57;6.68;;;;;;;;;;4939636;29;20028;-50
2022/04/13 08:11:45;;;;;;;19.77;8.63;;;;;;;;;;4939324;29;20102;-49
2022/04/13 08:14:12;;;;;;;14.32;7.68;;;;;;;;;;4939785;29;20035;-53
2022/04/13 08:16:38;;;;;;;19.60;6.78;;;;;;;;;;4939803;29;20024;-52
2022/04/13 08:19:07;;;;;;;14.85;7.63;;;;;;;;;;4939220;29;20032;-50
2022/04/13 08:21:33;;;;;;;11.18;6.75;;;;;;;;;;4939736;29;20469;-52
2022/04/13 08:23:59;;;;;;;11.23;6.97;;;;;;;;;;4939405;29;20028;-52
2022/04/13 08:26:25;;;;;;;13.73;6.38;;;;;;;;;;4939243;29;20036;-52
2022/04/13 08:28:51;;;;;;;11.48;5.25;;;;;;;;;;4939876;29;20039;-49
2022/04/13 08:31:18;;;;;;;15.77;5.57;;;;;;;;;;4939230;29;20498;-49
2022/04/13 08:33:46;;;;;;;13.20;6.32;;;;;;;;;;4939419;29;20059;-51
2022/04/13 08:36:12;;;;;;;13.05;6.47;;;;;;;;;;4939363;29;20465;-51
2022/04/13 08:38:38;;;;;;;12.82;5.95;;;;;;;;;;4939087;29;20098;-49
2022/04/13 08:41:10;;;;;;;10.43;5.32;;;;;;;;;;4939273;29;20075;-51
2022/04/13 08:43:39;;;;;;;13.70;5.75;;;;;;;;;;4939554;29;20350;-48
2022/04/13 08:46:10;;;;;;;11.40;5.78;;;;;;;;;;4939007;29;20061;-50
2022/04/13 08:48:38;;;;;;;11.52;5.80;;;;;;;;;;4939377;29;20035;-48
2022/04/13 08:51:06;;;;;;;9.77;4.95;;;;;;;;;;4939238;29;20054;-50
2022/04/13 08:53:32;;;;;;;13.93;5.50;;;;;;;;;;4938319;29;20095;-47
2022/04/13 08:56:02;;;;;;;10.02;5.35;;;;;;;;;;4939581;29;20031;-48
2022/04/13 08:58:49;;;;;;;12.32;5.80;;;;;;;;;;4939556;29;20028;-50
2022/04/13 09:01:25;;;;;;;12.05;5.60;;;;;;;;;;4938716;29;20055;-51
2022/04/13 09:03:52;;;;;;;12.80;6.28;;;;;;;;;;4938900;29;20160;-48
2022/04/13 09:06:21;;;;;;;9.63;5.45;;;;;;;;;;4938447;29;20030;-50
2022/04/13 09:08:47;;;;;;;11.07;5.18;;;;;;;;;;4938813;29;20127;-52
2022/04/13 09:11:13;;;;;;;11.57;5.72;;;;;;;;;;4937947;29;20020;-53
2022/04/13 09:13:40;;;;;;;10.77;5.57;;;;;;;;;;4938392;29;20032;-53
2022/04/13 09:16:06;;;;;;;10.35;5.43;;;;;;;;;;4938993;29;20102;-49
2022/04/13 09:18:32;;;;;;;12.60;5.55;;;;;;;;;;4938616;29;20028;-53
2022/04/13 09:21:00;;;;;;;10.55;5.50;;;;;;;;;;4938012;29;20099;-51
2022/04/13 09:23:26;;;;;;;8.52;5.25;;;;;;;;;;4938439;29;20433;-50
2022/04/13 09:25:53;;;;;;;10.70;5.65;;;;;;;;;;4938809;29;20032;-51
2022/04/13 09:28:19;;;;;;;12.35;5.25;;;;;;;;;;4938420;29;20036;-54
2022/04/13 09:30:46;;;;;;;22.08;6.20;;;;;;;;;;4938252;29;20019;-53
2022/04/13 09:33:12;;;;;;;13.80;5.97;;;;;;;;;;4938536;29;20039;-53
2022/04/13 09:35:38;;;;;;;10.80;5.78;;;;;;;;;;4937855;29;20027;-52
2022/04/13 09:38:08;;;;;;;11.10;5.95;;;;;;;;;;4938347;29;20035;-52
2022/04/13 09:40:34;;;;;;;10.75;5.75;;;;;;;;;;4937968;29;20034;-54
2022/04/13 09:43:20;;;;;;;12.32;5.53;;;;;;;;;;4938001;29;20063;-52
2022/04/13 09:45:47;;;;;;;11.10;5.53;;;;;;;;;;4937885;29;20023;-52
2022/04/13 09:48:16;;;;;;;9.32;5.13;;;;;;;;;;4937601;29;20035;-52
2022/04/13 09:50:44;;;;;;;10.70;5.50;;;;;;;;;;4938948;29;20064;-50
2022/04/13 09:53:11;;;;;;;11.38;5.93;;;;;;;;;;4938262;29;20441;-55
2022/04/13 09:55:38;;;;;;;10.65;5.57;;;;;;;;;;4937543;29;20035;-54
2022/04/13 09:58:07;;;;;;;9.60;5.43;;;;;;;;;;4937910;29;20035;-54
2022/04/13 10:00:34;;;;;;;9.20;5.38;;;;;;;;;;4937623;29;20071;-54
2022/04/13 10:03:11;;;;;;;12.48;5.10;;;;;;;;;;4937595;29;20059;-52
2022/04/13 10:05:37;;;;;;;12.15;6.50;;;;;;;;;;4937734;29;20036;-51
2022/04/13 10:08:06;;;;;;;9.32;5.32;;;;;;;;;;4937827;29;20475;-54
2022/04/13 10:10:32;;;;;;;10.68;5.22;;;;;;;;;;4937411;29;20036;-54
2022/04/13 10:12:59;;;;;;;10.88;4.93;;;;;;;;;;4937717;29;20054;-52
2022/04/13 10:15:25;;;;;;;8.85;4.53;;;;;;;;;;4937973;29;20059;-52
2022/04/13 10:17:57;;;;;;;9.50;5.60;;;;;;;;;;4937312;29;20031;-52
2022/04/13 10:20:23;;;;;;;11.38;4.82;;;;;;;;;;4937268;29;20028;-54
2022/04/13 10:23:01;;;;;;;10.75;5.38;;;;;;;;;;4936700;29;20026;-48
2022/04/13 10:25:27;;;;;;;9.90;4.35;;;;;;;;;;4937280;29;20039;-51
2022/04/13 10:27:57;;;;;;;10.35;5.07;;;;;;;;;;4937467;29;20034;-50
2022/04/13 10:30:36;;;;;;;8.07;4.78;;;;;;;;;;4936762;29;20106;-48
2022/04/13 10:33:04;;;;;;;11.15;4.88;;;;;;;;;;4937265;29;20028;-55
2022/04/13 10:35:31;;;;;;;10.25;5.55;;;;;;;;;;4937263;29;20034;-48
2022/04/13 10:37:57;;;;;;;12.30;4.90;;;;;;;;;;4937457;29;20351;-47
2022/04/13 10:40:24;;;;;;;10.52;4.45;;;;;;;;;;4936969;29;20050;-54
2022/04/13 10:42:51;;;;;;;8.80;4.60;;;;;;;;;;4937177;29;20023;-53
2022/04/13 10:45:18;;;;;;;10.52;4.55;;;;;;;;;;4936753;29;20024;-48
2022/04/13 10:47:53;;;;;;;12.75;4.95;;;;;;;;;;4937136;29;20105;-52
2022/04/13 10:50:21;;;;;;;9.57;4.68;;;;;;;;;;4937029;29;20350;-53
2022/04/13 10:52:58;;;;;;;10.40;6.70;;;;;;;;;;4937067;29;20429;-50
2022/04/13 10:55:27;;;;;;;6.95;4.30;;;;;;;;;;4936988;29;20118;-49
2022/04/13 10:57:58;;;;;;;8.38;4.78;;;;;;;;;;4937197;29;20032;-49
2022/04/13 11:00:26;;;;;;;8.00;4.68;;;;;;;;;;4936567;29;20107;-50
2022/04/13 11:02:56;;;;;;;6.60;3.92;;;;;;;;;;4936902;29;20079;-53
2022/04/13 11:05:25;;;;;;;11.32;4.78;;;;;;;;;;4936957;29;20043;-53
2022/04/13 11:07:56;;;;;;;8.70;4.10;;;;;;;;;;4936740;29;20031;-52
2022/04/13 11:10:22;;;;;;;;;;;;;;;;;;4936304;29;20027;-54
2022/04/13 11:12:49;;;;;;;7.88;4.78;;;;;;;;;;4936215;29;19907;-53
2022/04/13 11:15:15;;;;;;;7.57;4.43;;;;;;;;;;4936583;29;20091;-52
2022/04/13 11:17:42;;;;;;;8.15;4.65;;;;;;;;;;4936602;29;20038;-54
2022/04/13 11:20:19;;;;;;;8.23;4.47;;;;;;;;;;4936263;29;20020;-53
2022/04/13 11:22:45;;;;;;;8.88;4.50;;;;;;;;;;4936753;29;20377;-53
2022/04/13 11:25:11;;;;;;;9.25;4.38;;;;;;;;;;4936380;29;20087;-52
2022/04/13 11:27:51;;;;;;;7.95;4.57;;;;;;;;;;4935995;29;20111;-52
2022/04/13 11:30:17;;;;;;;10.82;4.60;;;;;;;;;;4936916;29;20032;-53
2022/04/13 11:32:43;;;;;;;9.02;4.30;;;;;;;;;;4935870;29;20107;-54
2022/04/13 11:35:13;;;;;;;9.30;4.10;;;;;;;;;;4936066;29;20028;-53
2022/04/13 11:37:39;;;;;;;8.20;3.77;;;;;;;;;;4936991;29;20038;-54
2022/04/13 11:40:07;;;;;;;6.97;4.03;;;;;;;;;;4935787;29;20028;-50
2022/04/13 11:42:39;;;;;;;7.05;4.20;;;;;;;;;;4936213;29;20031;-50
2022/04/13 11:45:08;;;;;;;8.35;3.63;;;;;;;;;;4935958;29;20035;-51
2022/04/13 11:47:39;;;;;;;6.32;3.75;;;;;;;;;;4936286;29;20027;-50
2022/04/13 11:50:05;;;;;;;;;;;;;;;;;;4936721;29;20115;-52
2022/04/13 11:52:42;;;;;;;9.45;3.85;;;;;;;;;;4936769;29;20344;-54
2022/04/13 11:55:22;;;;;;;8.70;5.38;;;;;;;;;;4935905;29;20055;-53
2022/04/13 11:58:13;;;;;;;6.78;4.05;;;;;;;;;;4936189;29;20027;-53
2022/04/13 12:00:39;;;;;;;;;;;;;;;;;;4933887;29;20098;-53
2022/04/13 12:03:25;;;;;;;7.38;3.97;;;;;;;;;;4935938;29;19993;-54
2022/04/13 12:05:54;;;;;;;7.53;3.95;;;;;;;;;;4932225;29;20047;-53
2022/04/13 12:08:22;;;;;;;6.00;4.50;;;;;;;;;;4935825;29;20106;-53
2022/04/13 12:10:55;;;;;;;8.93;4.18;;;;;;;;;;4935782;29;20469;-55
2022/04/13 12:13:22;;;;;;;10.98;5.30;;;;;;;;;;4936014;29;20040;-53
2022/04/13 12:15:52;;;;;;;5.95;4.18;;;;;;;;;;4935738;29;20028;-54
2022/04/13 12:18:22;;;;;;;10.27;4.90;;;;;;;;;;4936944;29;20095;-53
2022/04/13 12:20:49;;;;;;;9.02;4.68;;;;;;;;;;4935836;29;20111;-52
2022/04/13 12:23:26;;;;;;;7.10;4.10;;;;;;;;;;4935186;29;20020;-54
2022/04/13 12:25:54;;;;;;;8.00;3.70;;;;;;;;;;4935868;29;20032;-54
2022/04/13 12:28:22;;;;;;;7.60;3.85;;;;;;;;;;4935921;29;20023;-54
2022/04/13 12:31:01;;;;;;;5.25;3.25;;;;;;;;;;4935557;29;20035;-55
2022/04/13 12:33:28;;;;;;;5.43;3.50;;;;;;;;;;4936475;29;20411;-53
2022/04/13 12:35:59;;;;;;;8.00;4.32;;;;;;;;;;4935631;29;20059;-53
2022/04/13 12:38:26;;;;;;;7.13;4.00;;;;;;;;;;4935379;29;20024;-54
2022/04/13 12:41:02;;;;;;;8.10;3.80;;;;;;;;;;4935689;29;20023;-53
2022/04/13 12:43:29;;;;;;;6.88;4.35;;;;;;;;;;4935525;29;20031;-51
2022/04/13 12:45:55;;;;;;;9.82;4.65;;;;;;;;;;4938158;29;20132;-55
2022/04/13 12:48:28;;;;;;;5.75;4.15;;;;;;;;;;4939546;29;20035;-52
2022/04/13 12:50:55;;;;;;;6.75;4.63;;;;;;;;;;4938653;29;20027;-53
2022/04/13 12:53:21;;;;;;;7.43;4.30;;;;;;;;;;4939747;29;20056;-52
2022/04/13 12:55:53;;;;;;;9.07;6.10;;;;;;;;;;4939455;29;20421;-51
2022/04/13 12:58:19;;;;;;;7.38;4.20;;;;;;;;;;4938759;29;20027;-52
2022/04/13 13:00:49;;;;;;;8.18;5.53;;;;;;;;;;4939028;29;20024;-54
2022/04/13 13:03:16;;;;;;;5.78;3.92;;;;;;;;;;4939578;29;20035;-55
2022/04/13 13:05:42;;;;;;;8.65;4.03;;;;;;;;;;4938265;29;20036;-54
2022/04/13 13:08:09;;;;;;;7.78;4.53;;;;;;;;;;4939142;29;20452;-51
2022/04/13 13:10:35;;;;;;;21.67;13.05;;;;;;;;;;4938564;29;20110;-52
2022/04/13 13:13:13;;;;;;;9.18;6.13;;;;;;;;;;4938549;29;20059;-52
2022/04/13 13:15:39;;;;;;;8.77;5.15;;;;;;;;;;4939260;29;20118;-54
2022/04/13 13:18:06;;;;;;;9.93;5.82;;;;;;;;;;4938060;29;20079;-54
2022/04/13 13:20:33;;;;;;;8.15;4.70;;;;;;;;;;4938682;29;20517;-54
2022/04/13 13:22:59;;;;;;;6.47;3.85;;;;;;;;;;4938573;29;20027;-55
2022/04/13 13:25:25;;;;;;;8.02;3.80;;;;;;;;;;4937862;29;20035;-54
2022/04/13 13:27:56;;;;;;;5.65;4.47;;;;;;;;;;4938434;29;20036;-53
2022/04/13 13:30:23;;;;;;;11.82;5.45;;;;;;;;;;4938204;29;20118;-54
2022/04/13 13:32:50;;;;;;;6.35;4.25;;;;;;;;;;4938121;29;20043;-53
2022/04/13 13:35:17;;;;;;;5.00;3.80;;;;;;;;;;4938462;29;20036;-54
2022/04/13 13:37:44;;;;;;;5.88;3.42;;;;;;;;;;4938150;29;20023;-51
2022/04/13 13:40:29;;;;;;;5.72;3.53;;;;;;;;;;4938155;29;20020;-53
2022/04/13 13:42:55;;;;;;;5.63;3.22;;;;;;;;;;4938302;29;20031;-53
2022/04/13 13:45:21;;;;;;;10.23;4.13;;;;;;;;;;4938100;29;20067;-50
2022/04/13 13:47:47;;;;;;;5.95;4.45;;;;;;;;;;4937967;29;20039;-54
2022/04/13 13:50:13;;;;;;;7.55;3.80;;;;;;;;;;4937822;29;20355;-53
2022/04/13 13:52:40;;;;;;;6.63;3.67;;;;;;;;;;4938181;29;20052;-54
2022/04/13 13:55:07;;;;;;;5.57;3.30;;;;;;;;;;4937350;29;20024;-55
2022/04/13 13:57:33;;;;;;;5.95;3.75;;;;;;;;;;4937849;29;20031;-54
2022/04/13 13:59:59;;;;;;;9.73;3.85;;;;;;;;;;4937773;29;20385;-55
2022/04/13 14:02:25;;;;;;;5.55;3.33;;;;;;;;;;4938041;29;20075;-55
2022/04/13 14:04:51;;;;;;;5.70;3.67;;;;;;;;;;4937883;29;20046;-55
2022/04/13 14:07:18;;;;;;;7.57;3.35;;;;;;;;;;4936380;29;20050;-55
2022/04/13 14:09:44;;;;;;;6.60;3.90;;;;;;;;;;4937832;29;20555;-54
2022/04/13 14:12:11;;;;;;;6.18;3.30;;;;;;;;;;4937829;29;20038;-51
2022/04/13 14:14:37;;;;;;;10.43;3.83;;;;;;;;;;4937472;29;20155;-53
2022/04/13 14:17:04;;;;;;;5.78;3.85;;;;;;;;;;4937392;29;20541;-54
2022/04/13 14:19:33;;;;;;;9.48;3.63;;;;;;;;;;4937624;29;20028;-52
2022/04/13 14:22:00;;;;;;;8.00;4.35;;;;;;;;;;4936934;29;20027;-53
2022/04/13 14:24:26;;;;;;;9.70;3.78;;;;;;;;;;4937502;29;20111;-54
2022/04/13 14:26:52;;;;;;;5.97;3.47;;;;;;;;;;4937705;29;20035;-53
2022/04/13 14:29:18;;;;;;;7.38;3.60;;;;;;;;;;4936890;29;20100;-53